Time;durP1;ratioP1;P1;durP2;ratioP2;P2;SDS_P1;SDS_P2;PMS_P1;PMS_P2;Temp;Humidity;BMP_temperature;BMP_pressure;BME280_temperature;BME280_humidity;BME280_pressure;Samples;Min_cycle;Max_cycle;Signal;HPM_P1;HPM_P2
2023/08/03 00:00:34;;;;;;;0.20;0.20;;;16.20;99.90;;;;;;4818434;29;20045;-87
2023/08/03 00:03:00;;;;;;;0.10;0.10;;;16.40;99.90;;;;;;4819782;29;20492;-86
2023/08/03 00:05:26;;;;;;;0.10;0.10;;;15.70;99.90;;;;;;4819315;29;20039;-87
2023/08/03 00:07:52;;;;;;;0.20;0.20;;;16.60;99.90;;;;;;4815808;29;20427;-85
2023/08/03 00:10:19;;;;;;;0.20;0.20;;;16.70;99.90;;;;;;4818370;29;20089;-85
2023/08/03 00:12:46;;;;;;;0.20;0.20;;;16.20;99.90;;;;;;4820335;29;20098;-84
2023/08/03 00:15:13;;;;;;;0.20;0.20;;;16.70;99.90;;;;;;4801608;29;20050;-85
2023/08/03 00:17:39;;;;;;;0.20;0.20;;;16.10;99.90;;;;;;4818974;29;20070;-84
2023/08/03 00:20:06;;;;;;;0.20;0.20;;;15.80;99.90;;;;;;4819886;29;20817;-85
2023/08/03 00:22:33;;;;;;;0.10;0.10;;;16.70;99.90;;;;;;4803530;29;20060;-87
2023/08/03 00:24:58;;;;;;;0.20;0.20;;;15.80;99.90;;;;;;4819581;29;20042;-85
2023/08/03 00:27:25;;;;;;;0.17;0.17;;;16.60;99.90;;;;;;4801187;29;20039;-84
2023/08/03 00:29:50;;;;;;;0.10;0.10;;;16.50;99.90;;;;;;4817632;29;20046;-86
2023/08/03 00:32:17;;;;;;;0.20;0.20;;;16.60;99.90;;;;;;4816836;29;20053;-84
2023/08/03 00:34:43;;;;;;;0.20;0.20;;;16.20;99.90;;;;;;4818446;29;20113;-84
2023/08/03 00:37:11;;;;;;;0.20;0.20;;;15.90;99.90;;;;;;4817146;29;20135;-85
2023/08/03 00:39:36;;;;;;;0.13;0.13;;;16.30;99.90;;;;;;4818308;29;20427;-85
2023/08/03 00:42:02;;;;;;;0.10;0.10;;;16.70;99.90;;;;;;4802926;29;20059;-85
2023/08/03 00:44:28;;;;;;;0.20;0.20;;;16.70;99.90;;;;;;4807945;29;20039;-85
2023/08/03 00:46:54;;;;;;;0.10;0.10;;;16.00;99.90;;;;;;4810501;29;20609;-85
2023/08/03 00:49:20;;;;;;;0.10;0.10;;;16.10;99.90;;;;;;4817382;29;20166;-85
2023/08/03 00:51:46;;;;;;;0.10;0.10;;;16.40;99.90;;;;;;4818596;29;20050;-85
2023/08/03 00:54:11;;;;;;;0.20;0.20;;;16.80;99.90;;;;;;4817837;29;20046;-84
2023/08/03 00:56:37;;;;;;;0.20;0.20;;;16.20;99.90;;;;;;4819465;29;20510;-84
2023/08/03 00:59:03;;;;;;;0.20;0.20;;;16.70;99.90;;;;;;4818273;29;20081;-84
2023/08/03 01:01:29;;;;;;;0.10;0.10;;;16.00;99.90;;;;;;4813804;29;20169;-84
2023/08/03 01:03:55;;;;;;;0.20;0.20;;;16.50;99.90;;;;;;4822989;29;20530;-84
2023/08/03 01:06:22;;;;;;;0.10;0.10;;;16.40;99.90;;;;;;4824925;29;20056;-85
2023/08/03 01:08:48;;;;;;;0.20;0.20;;;16.70;99.90;;;;;;4820536;29;20440;-84
2023/08/03 01:11:14;;;;;;;0.20;0.20;;;16.80;99.90;;;;;;4821765;29;20053;-84
2023/08/03 01:13:39;;;;;;;0.10;0.10;;;16.30;99.90;;;;;;4819817;29;20102;-84
2023/08/03 01:16:09;;;;;;;0.10;0.10;;;16.90;99.90;;;;;;4822653;29;20050;-84
2023/08/03 01:18:36;;;;;;;0.20;0.20;;;16.90;99.90;;;;;;4805077;29;20042;-85
2023/08/03 01:21:05;;;;;;;0.20;0.20;;;16.10;99.90;;;;;;4805279;29;20058;-85
2023/08/03 01:23:31;;;;;;;0.10;0.10;;;16.80;99.90;;;;;;4819884;29;20198;-84
2023/08/03 01:25:56;;;;;;;0.10;0.10;;;16.20;99.90;;;;;;4820965;29;20133;-85
2023/08/03 01:28:22;;;;;;;0.20;0.20;;;16.20;99.90;;;;;;4808032;29;20045;-84
2023/08/03 01:30:48;;;;;;;0.10;0.10;;;16.50;99.90;;;;;;4821848;29;20571;-84
2023/08/03 01:33:14;;;;;;;0.20;0.20;;;16.80;99.90;;;;;;4819198;29;20475;-85
2023/08/03 01:35:39;;;;;;;0.10;0.10;;;16.20;99.90;;;;;;4825451;29;20085;-84
2023/08/03 01:38:05;;;;;;;0.20;0.20;;;16.80;99.90;;;;;;4806480;29;20092;-85
2023/08/03 01:40:31;;;;;;;0.20;0.20;;;16.80;99.90;;;;;;4820399;29;20065;-84
2023/08/03 01:42:57;;;;;;;0.20;0.20;;;16.90;99.90;;;;;;4820987;29;20057;-85
2023/08/03 01:45:22;;;;;;;0.20;0.20;;;16.20;99.90;;;;;;4820769;29;20055;-85
2023/08/03 01:47:48;;;;;;;0.10;0.10;;;16.20;99.90;;;;;;4817883;29;20129;-83
2023/08/03 01:50:14;;;;;;;0.20;0.20;;;16.30;99.90;;;;;;4821789;29;20109;-85
2023/08/03 01:52:39;;;;;;;0.10;0.10;;;16.90;99.90;;;;;;4828992;29;20046;-86
2023/08/03 01:55:05;;;;;;;0.20;0.20;;;16.20;99.90;;;;;;4819608;29;20050;-86
2023/08/03 01:57:31;;;;;;;0.20;0.20;;;16.80;99.90;;;;;;4820835;29;20046;-87
2023/08/03 01:59:57;;;;;;;0.10;0.10;;;16.90;99.90;;;;;;4820383;29;20038;-88
2023/08/03 02:02:23;;;;;;;0.20;0.20;;;16.20;99.90;;;;;;4819909;29;20042;-86
2023/08/03 02:04:48;;;;;;;0.20;0.20;;;16.50;99.90;;;;;;4819271;29;20447;-86
2023/08/03 02:07:38;;;;;;;0.20;0.20;;;16.10;99.90;;;;;;4821181;29;20050;-86
2023/08/03 02:10:04;;;;;;;0.20;0.20;;;16.60;99.90;;;;;;4822233;29;20046;-86
2023/08/03 02:12:30;;;;;;;0.15;0.15;;;16.10;99.90;;;;;;4822785;29;20556;-87
2023/08/03 02:14:55;;;;;;;0.13;0.13;;;16.20;99.90;;;;;;4820872;29;20083;-86
2023/08/03 02:17:21;;;;;;;0.20;0.20;;;16.80;99.90;;;;;;4819571;29;20047;-87
2023/08/03 02:19:46;;;;;;;0.20;0.20;;;16.80;99.90;;;;;;4820072;29;20050;-87
2023/08/03 02:22:12;;;;;;;0.13;0.13;;;16.80;99.90;;;;;;4822192;29;20619;-85
2023/08/03 02:24:38;;;;;;;0.10;0.10;;;16.40;99.90;;;;;;4821141;29;20512;-86
2023/08/03 02:27:04;;;;;;;0.20;0.20;;;16.50;99.90;;;;;;4822752;29;20082;-87
2023/08/03 02:29:29;;;;;;;0.20;0.20;;;16.70;99.90;;;;;;4814410;29;20046;-87
2023/08/03 02:31:55;;;;;;;0.17;0.17;;;16.30;99.90;;;;;;4820873;29;20074;-86
2023/08/03 02:34:21;;;;;;;0.20;0.20;;;16.80;99.90;;;;;;4820003;29;20137;-87
2023/08/03 02:36:47;;;;;;;0.20;0.20;;;16.10;99.90;;;;;;4822361;29;20042;-87
2023/08/03 02:39:13;;;;;;;0.20;0.20;;;16.50;99.90;;;;;;4824609;29;20198;-86
2023/08/03 02:41:38;;;;;;;0.10;0.10;;;16.20;99.90;;;;;;4820984;29;20136;-87
2023/08/03 02:44:04;;;;;;;0.10;0.10;;;16.60;99.90;;;;;;4820022;29;20050;-87
2023/08/03 02:46:30;;;;;;;0.20;0.20;;;16.70;99.90;;;;;;4823055;29;20042;-86
2023/08/03 02:48:56;;;;;;;0.20;0.20;;;16.00;99.90;;;;;;4821616;29;20058;-85
2023/08/03 02:51:22;;;;;;;0.17;0.17;;;16.80;99.90;;;;;;4821245;29;20490;-86
2023/08/03 02:53:47;;;;;;;0.20;0.20;;;16.80;99.90;;;;;;4821785;29;20045;-85
2023/08/03 02:56:13;;;;;;;0.10;0.10;;;16.50;99.90;;;;;;4819008;29;20206;-85
2023/08/03 02:58:39;;;;;;;0.20;0.20;;;16.10;99.90;;;;;;4822036;29;20064;-86
2023/08/03 03:01:04;;;;;;;0.10;0.10;;;16.50;99.90;;;;;;4818845;29;20053;-85
2023/08/03 03:03:30;;;;;;;0.20;0.20;;;16.00;99.90;;;;;;4820562;29;20046;-86
2023/08/03 03:05:56;;;;;;;0.20;0.20;;;16.60;99.90;;;;;;4821193;29;20043;-85
2023/08/03 03:08:22;;;;;;;0.20;0.20;;;16.60;99.90;;;;;;4805528;29;20049;-86
2023/08/03 03:10:48;;;;;;;0.20;0.20;;;16.60;99.90;;;;;;4819632;29;20081;-85
2023/08/03 03:13:13;;;;;;;0.10;0.10;;;16.70;99.90;;;;;;4819399;29;20487;-86
2023/08/03 03:15:39;;;;;;;0.20;0.20;;;16.40;99.90;;;;;;4820810;29;20490;-85
2023/08/03 03:18:05;;;;;;;0.10;0.10;;;16.30;99.90;;;;;;4819501;29;20487;-85
2023/08/03 03:20:31;;;;;;;0.20;0.20;;;16.40;99.90;;;;;;4817564;29;20053;-84
2023/08/03 03:22:56;;;;;;;0.13;0.13;;;16.50;99.90;;;;;;4819284;29;20046;-85
2023/08/03 03:25:22;;;;;;;0.20;0.20;;;16.10;99.90;;;;;;4818653;29;20042;-85
2023/08/03 03:27:48;;;;;;;0.20;0.20;;;16.20;99.90;;;;;;4802984;29;20526;-86
2023/08/03 03:30:16;;;;;;;0.20;0.20;;;16.30;99.90;;;;;;4817669;29;20045;-86
2023/08/03 03:32:43;;;;;;;0.20;0.20;;;16.20;99.90;;;;;;4803874;29;20039;-85
2023/08/03 03:35:09;;;;;;;0.20;0.20;;;16.80;99.90;;;;;;4814680;29;20099;-85
2023/08/03 03:37:34;;;;;;;0.20;0.20;;;16.80;99.90;;;;;;4818030;29;20039;-85
2023/08/03 03:40:00;;;;;;;0.10;0.10;;;16.20;99.90;;;;;;4817668;29;20511;-85
2023/08/03 03:42:26;;;;;;;0.20;0.20;;;16.50;99.90;;;;;;4819973;29;20066;-86
2023/08/03 03:44:51;;;;;;;0.10;0.10;;;16.20;99.90;;;;;;4819395;29;20057;-84
2023/08/03 03:47:17;;;;;;;0.20;0.20;;;16.80;99.90;;;;;;4820398;29;20050;-86
2023/08/03 03:49:43;;;;;;;0.20;0.20;;;16.30;99.90;;;;;;4819385;29;20133;-86
2023/08/03 03:52:08;;;;;;;0.20;0.20;;;16.30;99.90;;;;;;4820477;29;20401;-86
2023/08/03 03:54:34;;;;;;;0.20;0.20;;;16.40;99.90;;;;;;4820351;29;20049;-85
2023/08/03 03:57:00;;;;;;;0.20;0.20;;;16.40;99.90;;;;;;4824139;29;20125;-86
2023/08/03 03:59:26;;;;;;;0.20;0.20;;;16.70;99.90;;;;;;4825860;29;20051;-85
2023/08/03 04:01:52;;;;;;;0.20;0.20;;;16.70;99.90;;;;;;4823959;29;20057;-85
2023/08/03 04:04:18;;;;;;;0.20;0.20;;;16.60;99.90;;;;;;4839951;29;20558;-85
2023/08/03 04:06:43;;;;;;;0.20;0.20;;;16.80;99.90;;;;;;4814715;29;20415;-86
2023/08/03 04:09:09;;;;;;;0.20;0.20;;;16.90;99.90;;;;;;4829354;29;20081;-86
2023/08/03 04:11:35;;;;;;;0.20;0.20;;;16.60;99.90;;;;;;4808870;29;20049;-85
2023/08/03 04:14:00;;;;;;;0.10;0.10;;;16.40;99.90;;;;;;4819278;29;20058;-85
2023/08/03 04:16:26;;;;;;;0.20;0.20;;;16.80;99.90;;;;;;4819083;29;20133;-85
2023/08/03 04:18:52;;;;;;;0.20;0.20;;;16.50;99.90;;;;;;4818840;29;20050;-85
2023/08/03 04:21:17;;;;;;;0.10;0.10;;;16.50;99.90;;;;;;4817313;29;20051;-84
2023/08/03 04:23:43;;;;;;;0.20;0.20;;;16.40;99.90;;;;;;4813308;29;20050;-85
2023/08/03 04:26:09;;;;;;;0.20;0.20;;;16.80;99.90;;;;;;4818787;29;20764;-86
2023/08/03 04:28:34;;;;;;;0.20;0.20;;;16.90;99.90;;;;;;4805019;29;20495;-84
2023/08/03 04:31:01;;;;;;;0.20;0.20;;;17.00;99.90;;;;;;4816210;29;20053;-85
2023/08/03 04:33:26;;;;;;;0.20;0.20;;;17.00;99.90;;;;;;4819168;29;20380;-85
2023/08/03 04:35:52;;;;;;;0.17;0.17;;;16.60;99.90;;;;;;4818955;29;20060;-84
2023/08/03 04:38:18;;;;;;;0.10;0.10;;;16.90;99.90;;;;;;4821833;29;20081;-86
2023/08/03 04:40:43;;;;;;;0.20;0.20;;;16.50;99.90;;;;;;4824788;29;20062;-86
2023/08/03 04:43:09;;;;;;;0.20;0.20;;;16.70;99.90;;;;;;4822830;29;20078;-85
2023/08/03 04:45:35;;;;;;;0.13;0.13;;;17.00;99.90;;;;;;4821972;29;20054;-86
2023/08/03 04:48:01;;;;;;;0.20;0.20;;;16.90;99.90;;;;;;4822717;29;20050;-85
2023/08/03 04:50:26;;;;;;;0.20;0.20;;;17.00;99.90;;;;;;4822088;29;20114;-85
2023/08/03 04:52:52;;;;;;;0.20;0.20;;;17.00;99.90;;;;;;4822610;29;20046;-85
2023/08/03 04:55:17;;;;;;;0.20;0.20;;;17.00;99.90;;;;;;4823692;29;20038;-85
2023/08/03 04:57:43;;;;;;;0.20;0.20;;;16.60;99.90;;;;;;4806979;29;20045;-85
2023/08/03 05:00:09;;;;;;;0.20;0.20;;;16.60;99.90;;;;;;4822764;29;20055;-86
2023/08/03 05:02:35;;;;;;;0.20;0.20;;;16.70;99.90;;;;;;4809037;29;20056;-84
2023/08/03 05:05:00;;;;;;;0.20;0.20;;;17.10;99.90;;;;;;4807244;29;20038;-85
2023/08/03 05:07:27;;;;;;;0.10;0.10;;;17.00;99.90;;;;;;4821901;29;20042;-85
2023/08/03 05:09:53;;;;;;;0.20;0.20;;;17.00;99.90;;;;;;4821617;29;20077;-85
2023/08/03 05:12:19;;;;;;;0.20;0.20;;;16.80;99.90;;;;;;4818909;29;20053;-84
2023/08/03 05:14:45;;;;;;;0.20;0.20;;;17.10;99.90;;;;;;4821219;29;20086;-85
2023/08/03 05:17:11;;;;;;;0.20;0.20;;;16.90;99.90;;;;;;4822146;29;20092;-86
2023/08/03 05:19:36;;;;;;;0.20;0.20;;;16.80;99.90;;;;;;4820431;29;20499;-83
2023/08/03 05:22:02;;;;;;;0.10;0.10;;;16.70;99.90;;;;;;4821862;29;20426;-85
2023/08/03 05:24:28;;;;;;;0.20;0.20;;;17.10;99.90;;;;;;4821420;29;20047;-84
2023/08/03 05:26:53;;;;;;;0.13;0.13;;;17.10;99.90;;;;;;4820533;29;20047;-84
2023/08/03 05:29:19;;;;;;;0.20;0.20;;;16.70;99.90;;;;;;4819153;29;20052;-84
2023/08/03 05:31:48;;;;;;;0.20;0.20;;;16.60;99.90;;;;;;4820304;29;20090;-84
2023/08/03 05:34:17;;;;;;;0.20;0.20;;;17.20;99.90;;;;;;4819633;29;20495;-85
2023/08/03 05:36:43;;;;;;;0.17;0.17;;;17.10;99.90;;;;;;4821941;29;20047;-84
2023/08/03 05:39:09;;;;;;;0.10;0.10;;;17.20;99.90;;;;;;4821457;29;20058;-84
2023/08/03 05:41:35;;;;;;;0.20;0.20;;;17.10;99.90;;;;;;4810932;29;20050;-84
2023/08/03 05:44:01;;;;;;;0.20;0.20;;;17.20;99.90;;;;;;4803685;29;20046;-83
2023/08/03 05:46:32;;;;;;;0.20;0.20;;;16.70;99.90;;;;;;4819847;29;20054;-85
2023/08/03 05:49:01;;;;;;;0.20;0.20;;;17.00;99.90;;;;;;4812327;29;20047;-84
2023/08/03 05:51:27;;;;;;;0.20;0.20;;;16.70;99.90;;;;;;4805685;29;20106;-84
2023/08/03 05:53:57;;;;;;;0.10;0.10;;;16.90;99.90;;;;;;4820827;29;20082;-83
2023/08/03 05:56:23;;;;;;;0.20;0.20;;;17.20;99.90;;;;;;4823262;29;20042;-85
2023/08/03 05:58:50;;;;;;;0.20;0.20;;;17.00;99.90;;;;;;4810340;29;20045;-83
2023/08/03 06:01:21;;;;;;;0.10;0.10;;;16.70;99.90;;;;;;4824536;29;20046;-85
2023/08/03 06:03:47;;;;;;;0.20;0.20;;;17.20;99.90;;;;;;4824062;29;20046;-84
2023/08/03 06:06:18;;;;;;;0.10;0.10;;;17.20;99.90;;;;;;4820429;29;20492;-84
2023/08/03 06:08:57;;;;;;;0.20;0.20;;;17.20;99.90;;;;;;4823520;29;20056;-83
2023/08/03 06:11:23;;;;;;;0.20;0.20;;;16.80;99.90;;;;;;4822031;29;20062;-84
2023/08/03 06:13:51;;;;;;;0.10;0.10;;;17.20;99.90;;;;;;4822905;29;20050;-83
2023/08/03 06:16:16;;;;;;;0.10;0.10;;;17.10;99.90;;;;;;4817245;29;20049;-84
2023/08/03 06:18:55;;;;;;;0.20;0.20;;;17.00;99.90;;;;;;4819106;29;20086;-84
2023/08/03 06:21:23;;;;;;;0.20;0.20;;;17.00;99.90;;;;;;4822050;29;20095;-81
2023/08/03 06:23:57;;;;;;;0.20;0.20;;;17.30;99.90;;;;;;4823187;29;20057;-85
2023/08/03 06:26:24;;;;;;;0.10;0.10;;;17.20;99.90;;;;;;4823483;29;20046;-81
2023/08/03 06:28:53;;;;;;;0.20;0.20;;;17.40;99.90;;;;;;4819683;29;20054;-84
2023/08/03 06:31:39;;;;;;;0.20;0.20;;;17.50;99.90;;;;;;4815283;29;20044;-82
2023/08/03 06:34:05;;;;;;;0.10;0.10;;;17.20;99.90;;;;;;4814922;29;20503;-83
2023/08/03 06:36:31;;;;;;;0.20;0.20;;;17.50;99.90;;;;;;4814238;29;20088;-83
2023/08/03 06:38:58;;;;;;;0.20;0.20;;;17.20;99.90;;;;;;4819766;29;20563;-83
2023/08/03 06:41:24;;;;;;;0.20;0.20;;;17.50;99.90;;;;;;4820397;29;20058;-83
2023/08/03 06:43:54;;;;;;;0.10;0.10;;;17.40;99.90;;;;;;4822976;29;20157;-84
2023/08/03 06:46:20;;;;;;;0.20;0.20;;;17.40;99.90;;;;;;4817364;29;20045;-82
2023/08/03 06:48:46;;;;;;;0.20;0.20;;;17.40;99.90;;;;;;4819431;29;20047;-83
2023/08/03 06:51:12;;;;;;;0.20;0.20;;;17.30;99.90;;;;;;4820294;29;20110;-83
2023/08/03 06:53:38;;;;;;;0.20;0.20;;;17.40;99.90;;;;;;4809315;29;20617;-84
2023/08/03 06:56:03;;;;;;;0.20;0.20;;;17.30;99.90;;;;;;4820016;29;20046;-83
2023/08/03 06:58:29;;;;;;;0.20;0.20;;;17.40;99.90;;;;;;4819211;29;20054;-81
2023/08/03 07:00:55;;;;;;;0.13;0.13;;;17.80;99.90;;;;;;4819125;29;20054;-82
2023/08/03 07:03:21;;;;;;;0.20;0.20;;;17.50;99.90;;;;;;4804113;29;20414;-82
2023/08/03 07:05:46;;;;;;;0.10;0.10;;;17.50;99.90;;;;;;4804824;29;20042;-83
2023/08/03 07:08:12;;;;;;;0.20;0.20;;;17.60;99.90;;;;;;4816470;29;20142;-82
2023/08/03 07:10:38;;;;;;;0.10;0.10;;;17.60;99.90;;;;;;4820097;29;20061;-84
2023/08/03 07:13:04;;;;;;;0.10;0.10;;;17.80;99.90;;;;;;4819862;29;20043;-84
2023/08/03 07:15:36;;;;;;;0.20;0.20;;;17.70;99.90;;;;;;4816517;29;20046;-80
2023/08/03 07:18:04;;;;;;;0.20;0.20;;;17.80;99.90;;;;;;4815381;29;20073;-81
2023/08/03 07:20:30;;;;;;;0.20;0.20;;;17.80;99.90;;;;;;4818097;29;20053;-81
2023/08/03 07:22:56;;;;;;;0.20;0.20;;;18.00;99.90;;;;;;4816209;29;20046;-72
2023/08/03 07:25:22;;;;;;;0.17;0.17;;;18.10;99.90;;;;;;4818650;29;20369;-83
2023/08/03 07:27:47;;;;;;;0.20;0.20;;;17.80;99.90;;;;;;4819807;29;20038;-82
2023/08/03 07:30:13;;;;;;;0.20;0.20;;;17.90;99.90;;;;;;4822121;29;20051;-83
2023/08/03 07:32:38;;;;;;;0.10;0.10;;;18.00;99.90;;;;;;4820163;29;20046;-84
2023/08/03 07:35:05;;;;;;;0.15;0.15;;;17.90;99.90;;;;;;4821135;29;20053;-86
2023/08/03 07:37:30;;;;;;;0.20;0.20;;;18.10;99.90;;;;;;4818210;29;20100;-87
2023/08/03 07:39:57;;;;;;;0.10;0.10;;;17.90;99.90;;;;;;4819491;29;20469;-87
2023/08/03 07:42:22;;;;;;;0.10;0.10;;;18.10;99.90;;;;;;4823935;29;20110;-89
2023/08/03 07:44:52;;;;;;;0.15;0.15;;;18.10;99.90;;;;;;4824890;29;20369;-88
2023/08/03 07:47:18;;;;;;;0.20;0.20;;;18.00;99.90;;;;;;4819055;29;20050;-89
2023/08/03 07:49:44;;;;;;;0.10;0.10;;;17.90;99.90;;;;;;4816066;29;20064;-87
2023/08/03 07:52:09;;;;;;;0.20;0.20;;;18.00;99.90;;;;;;4821235;29;20042;-89
2023/08/03 07:54:35;;;;;;;0.20;0.20;;;18.10;99.90;;;;;;4826073;29;20203;-89
2023/08/03 07:57:01;;;;;;;0.20;0.20;;;18.10;99.90;;;;;;4826554;29;20057;-92
2023/08/03 07:59:26;;;;;;;0.20;0.20;;;18.20;99.90;;;;;;4809714;29;20043;-91
2023/08/03 08:01:52;;;;;;;0.20;0.20;;;18.00;99.90;;;;;;4821915;29;20123;-91
2023/08/03 08:04:18;;;;;;;0.20;0.20;;;18.30;99.90;;;;;;4818442;29;20229;-90
2023/08/03 08:06:45;;;;;;;0.20;0.20;;;18.20;99.90;;;;;;4804007;29;20544;-89
2023/08/03 08:09:10;;;;;;;0.20;0.20;;;18.20;99.90;;;;;;4818009;29;20399;-89
2023/08/03 08:11:36;;;;;;;0.20;0.20;;;18.50;99.90;;;;;;4819746;29;20054;-89
2023/08/03 08:14:02;;;;;;;0.20;0.20;;;18.60;99.90;;;;;;4820017;29;20058;-89
2023/08/03 08:16:28;;;;;;;0.20;0.20;;;18.50;99.90;;;;;;4819222;29;20054;-89
2023/08/03 08:18:54;;;;;;;0.20;0.20;;;18.60;99.90;;;;;;4817967;29;20111;-91
2023/08/03 08:21:20;;;;;;;0.13;0.13;;;18.70;99.90;;;;;;4815679;29;20042;-89
2023/08/03 08:23:45;;;;;;;0.15;0.15;;;18.70;99.90;;;;;;4818070;29;20049;-89
2023/08/03 08:26:15;;;;;;;0.20;0.20;;;18.70;99.90;;;;;;4826034;29;20468;-89
2023/08/03 08:28:43;;;;;;;0.20;0.20;;;18.80;99.90;;;;;;4806071;29;20050;-86
2023/08/03 08:31:09;;;;;;;0.20;0.20;;;18.90;99.90;;;;;;4816784;29;20042;-87
2023/08/03 08:33:35;;;;;;;0.20;0.20;;;18.90;99.90;;;;;;4816944;29;20095;-85
2023/08/03 08:36:01;;;;;;;0.20;0.20;;;19.00;99.90;;;;;;4815397;29;20042;-88
2023/08/03 08:38:27;;;;;;;0.20;0.20;;;18.90;99.90;;;;;;4805651;29;20051;-86
2023/08/03 08:40:52;;;;;;;0.20;0.20;;;19.00;99.90;;;;;;4819334;29;20463;-88
2023/08/03 08:43:19;;;;;;;0.20;0.20;;;19.00;99.90;;;;;;4814837;29;20407;-89
2023/08/03 08:45:44;;;;;;;0.20;0.20;;;19.10;99.90;;;;;;4818447;29;20060;-88
2023/08/03 08:48:10;;;;;;;0.20;0.20;;;19.20;99.90;;;;;;4823361;29;20465;-86
2023/08/03 08:50:36;;;;;;;0.20;0.20;;;19.10;99.90;;;;;;4823215;29;20046;-84
2023/08/03 08:53:02;;;;;;;0.20;0.20;;;19.10;99.90;;;;;;4815682;29;20602;-88
2023/08/03 08:55:30;;;;;;;0.20;0.20;;;19.10;99.90;;;;;;4812433;29;20046;-84
2023/08/03 08:57:57;;;;;;;0.20;0.20;;;19.10;99.90;;;;;;4812602;29;20061;-83
2023/08/03 09:00:27;;;;;;;0.10;0.10;;;19.10;99.90;;;;;;4819237;29;20129;-88
2023/08/03 09:03:00;;;;;;;0.10;0.10;;;19.10;99.90;;;;;;4820135;29;20129;-87
2023/08/03 09:05:26;;;;;;;0.20;0.20;;;19.10;99.90;;;;;;4844453;29;20056;-86
2023/08/03 09:08:04;;;;;;;0.17;0.17;;;19.20;99.90;;;;;;4823890;29;20509;-87
2023/08/03 09:10:54;;;;;;;0.20;0.20;;;19.10;99.90;;;;;;4823548;29;20053;-87
2023/08/03 09:13:34;;;;;;;0.20;0.20;;;19.30;99.90;;;;;;4825800;29;20061;-88
2023/08/03 09:16:00;;;;;;;0.20;0.20;;;19.40;99.90;;;;;;4808306;29;20063;-86
2023/08/03 09:18:29;;;;;;;0.10;0.10;;;19.40;99.90;;;;;;4813365;29;20058;-85
2023/08/03 09:21:15;;;;;;;0.20;0.20;;;19.40;99.90;;;;;;4824465;29;20054;-82
2023/08/03 09:23:41;;;;;;;0.13;0.13;;;19.30;99.90;;;;;;4805888;29;20129;-81
2023/08/03 09:26:08;;;;;;;0.15;0.15;;;19.30;99.90;;;;;;4805634;29;20050;-83
2023/08/03 09:28:38;;;;;;;0.20;0.20;;;19.30;99.90;;;;;;4821703;29;20612;-82
2023/08/03 09:31:05;;;;;;;0.20;0.20;;;19.30;99.90;;;;;;4797045;29;20050;-83
2023/08/03 09:33:32;;;;;;;0.20;0.20;;;19.30;99.90;;;;;;4806269;29;20612;-82
2023/08/03 09:36:10;;;;;;;0.20;0.20;;;19.40;99.90;;;;;;4823844;29;20054;-82
2023/08/03 09:38:40;;;;;;;0.20;0.20;;;19.40;99.90;;;;;;4833226;29;20086;-83
2023/08/03 09:41:06;;;;;;;0.20;0.20;;;19.50;99.90;;;;;;4820912;29;20055;-83
2023/08/03 09:43:34;;;;;;;0.20;0.20;;;19.50;99.90;;;;;;4805706;29;20098;-82
2023/08/03 09:46:00;;;;;;;0.20;0.20;;;19.50;99.90;;;;;;4816650;29;20392;-81
2023/08/03 09:48:26;;;;;;;0.20;0.20;;;19.50;99.90;;;;;;4795202;29;20523;-82
2023/08/03 09:50:55;;;;;;;0.20;0.20;;;19.60;99.90;;;;;;4816902;29;20126;-82
2023/08/03 09:53:24;;;;;;;0.20;0.20;;;19.60;99.90;;;;;;4822536;29;20046;-82
2023/08/03 09:56:01;;;;;;;0.20;0.20;;;19.70;99.90;;;;;;4821204;29;20057;-83
2023/08/03 09:59:08;;;;;;;0.20;0.20;;;19.80;99.90;;;;;;4822481;29;20058;-82
2023/08/03 10:01:36;;;;;;;0.20;0.20;;;19.80;99.90;;;;;;4796273;29;20407;-82
2023/08/03 10:04:04;;;;;;;0.20;0.20;;;19.90;99.90;;;;;;4819250;29;20129;-83
2023/08/03 10:06:34;;;;;;;0.20;0.20;;;19.90;99.90;;;;;;4822830;29;20530;-83
2023/08/03 10:09:06;;;;;;;0.20;0.20;;;20.00;99.90;;;;;;4804730;29;20058;-82
2023/08/03 10:11:35;;;;;;;;;;;20.00;99.90;;;;;;4816604;29;20039;-83
2023/08/03 10:14:03;;;;;;;0.20;0.20;;;20.00;99.90;;;;;;4821198;29;19921;-82
2023/08/03 10:16:32;;;;;;;0.20;0.20;;;20.00;99.90;;;;;;4821971;29;20059;-83
2023/08/03 10:18:58;;;;;;;0.20;0.20;;;20.00;99.90;;;;;;4817619;29;20046;-85
2023/08/03 10:21:24;;;;;;;0.20;0.20;;;19.90;99.90;;;;;;4809831;29;20129;-85
2023/08/03 10:24:12;;;;;;;0.10;0.10;;;19.90;99.90;;;;;;4807019;29;20050;-82
2023/08/03 10:26:39;;;;;;;0.20;0.20;;;19.80;99.90;;;;;;4799609;29;20048;-84
2023/08/03 10:29:05;;;;;;;0.20;0.20;;;19.80;99.90;;;;;;4814444;29;20054;-83
2023/08/03 10:31:31;;;;;;;0.20;0.20;;;19.80;99.90;;;;;;4811159;29;20150;-83
2023/08/03 10:33:57;;;;;;;0.20;0.20;;;19.70;99.90;;;;;;4805636;29;20066;-84
2023/08/03 10:36:34;;;;;;;0.17;0.17;;;19.60;99.90;;;;;;4804258;29;20045;-84
2023/08/03 10:39:12;;;;;;;0.20;0.20;;;19.60;99.90;;;;;;4816134;29;20066;-83
2023/08/03 10:41:43;;;;;;;0.20;0.20;;;19.60;99.90;;;;;;4811589;29;20054;-84
2023/08/03 10:44:14;;;;;;;0.20;0.20;;;19.50;99.90;;;;;;4820743;29;20054;-84
2023/08/03 10:46:56;;;;;;;0.20;0.20;;;19.50;99.90;;;;;;4822882;29;20065;-83
2023/08/03 10:49:23;;;;;;;0.20;0.20;;;19.60;99.90;;;;;;4818058;29;20102;-83
2023/08/03 10:51:49;;;;;;;0.20;0.20;;;19.70;99.90;;;;;;4812391;29;20408;-83
2023/08/03 10:54:17;;;;;;;0.20;0.20;;;19.60;99.90;;;;;;4817653;29;20054;-85
2023/08/03 10:57:06;;;;;;;0.20;0.20;;;19.70;99.90;;;;;;4819839;29;20407;-84
2023/08/03 10:59:59;;;;;;;0.20;0.20;;;19.80;99.90;;;;;;4821223;29;20046;-83
2023/08/03 11:02:35;;;;;;;0.10;0.10;;;19.90;99.90;;;;;;4810156;29;20058;-83
2023/08/03 11:05:04;;;;;;;0.20;0.20;;;19.90;99.90;;;;;;4806659;29;20054;-84
2023/08/03 11:07:32;;;;;;;0.20;0.20;;;20.00;99.90;;;;;;4820898;29;20074;-85
2023/08/03 11:09:59;;;;;;;0.20;0.20;;;20.10;99.90;;;;;;4821996;29;20456;-84
2023/08/03 11:12:27;;;;;;;0.20;0.20;;;20.00;99.90;;;;;;4806517;29;20096;-83
2023/08/03 11:14:54;;;;;;;0.20;0.20;;;20.10;99.90;;;;;;4819582;29;20576;-83
2023/08/03 11:17:28;;;;;;;0.20;0.20;;;20.10;99.90;;;;;;4819453;29;20053;-84
2023/08/03 11:19:56;;;;;;;0.20;0.20;;;20.10;99.90;;;;;;4819846;29;20046;-83
2023/08/03 11:22:23;;;;;;;0.20;0.20;;;20.00;99.90;;;;;;4818630;29;20050;-83
2023/08/03 11:25:00;;;;;;;0.20;0.20;;;20.10;99.90;;;;;;4820424;29;20504;-86
2023/08/03 11:27:26;;;;;;;0.20;0.20;;;20.10;99.90;;;;;;4814752;29;20062;-83
2023/08/03 11:29:52;;;;;;;0.20;0.20;;;20.30;99.90;;;;;;4818809;29;20134;-85
2023/08/03 11:32:27;;;;;;;0.20;0.20;;;20.40;99.90;;;;;;4805146;29;20476;-83
2023/08/03 11:35:00;;;;;;;0.20;0.20;;;20.50;99.90;;;;;;4808624;29;20096;-84
2023/08/03 11:37:30;;;;;;;0.20;0.20;;;20.60;99.90;;;;;;4814120;29;20065;-92
2023/08/03 11:39:56;;;;;;;0.20;0.20;;;20.60;99.90;;;;;;4815410;29;20115;-85
2023/08/03 11:42:22;;;;;;;0.20;0.20;;;20.80;99.90;;;;;;4821199;29;20130;-83
2023/08/03 11:44:48;;;;;;;0.20;0.20;;;20.80;99.90;;;;;;4821945;29;20046;-85
2023/08/03 11:47:14;;;;;;;0.20;0.20;;;20.90;99.90;;;;;;4819946;29;20091;-83
2023/08/03 11:49:40;;;;;;;0.20;0.20;;;20.90;99.90;;;;;;4811203;29;20131;-84
2023/08/03 11:52:05;;;;;;;0.20;0.20;;;20.90;99.90;;;;;;4820128;29;20046;-85
2023/08/03 11:54:34;;;;;;;0.20;0.20;;;21.10;99.90;;;;;;4817826;29;20073;-84
2023/08/03 11:59:47;;;;;;;0.20;0.20;;;21.10;99.90;;;;;;4813115;29;20722;-88
2023/08/03 12:02:13;;;;;;;0.20;0.20;;;21.10;99.90;;;;;;4819625;29;20042;-83
2023/08/03 12:04:40;;;;;;;0.20;0.20;;;21.20;99.90;;;;;;4817999;29;20050;-85
2023/08/03 12:07:06;;;;;;;0.20;0.20;;;21.20;99.90;;;;;;4819507;29;20074;-83
2023/08/03 12:09:38;;;;;;;0.20;0.20;;;21.20;99.90;;;;;;4816725;29;20042;-85
2023/08/03 12:12:11;;;;;;;0.20;0.20;;;21.20;99.90;;;;;;4817225;29;20051;-82
2023/08/03 12:14:37;;;;;;;0.10;0.10;;;21.30;99.90;;;;;;4819328;29;20487;-83
2023/08/03 12:17:09;;;;;;;0.20;0.20;;;21.40;99.90;;;;;;4820186;29;20054;-83
2023/08/03 12:19:37;;;;;;;0.20;0.20;;;21.40;99.90;;;;;;4820748;29;20057;-83
2023/08/03 12:22:03;;;;;;;0.20;0.20;;;21.40;99.90;;;;;;4820191;29;20050;-82
2023/08/03 12:24:29;;;;;;;0.20;0.20;;;21.60;99.90;;;;;;4804203;29;20143;-85
2023/08/03 12:26:55;;;;;;;0.20;0.20;;;21.70;99.90;;;;;;4818624;29;20050;-82
2023/08/03 12:29:22;;;;;;;0.20;0.20;;;21.60;99.90;;;;;;4817560;29;20066;-82
2023/08/03 12:31:48;;;;;;;0.20;0.20;;;21.50;99.90;;;;;;4821212;29;20115;-83
2023/08/03 12:34:14;;;;;;;0.20;0.20;;;21.20;99.90;;;;;;4810384;29;20051;-83
2023/08/03 12:36:39;;;;;;;0.20;0.20;;;21.00;99.90;;;;;;4816653;29;20057;-83
2023/08/03 12:39:05;;;;;;;0.20;0.20;;;20.80;99.90;;;;;;4818983;29;20086;-83
2023/08/03 12:41:32;;;;;;;0.20;0.20;;;20.70;99.90;;;;;;4816867;29;20051;-82
2023/08/03 12:43:58;;;;;;;0.20;0.20;;;20.60;99.90;;;;;;4814127;29;20564;-84
2023/08/03 12:46:24;;;;;;;0.20;0.20;;;20.40;99.90;;;;;;4820832;29;20043;-84
2023/08/03 12:48:50;;;;;;;0.20;0.20;;;20.40;99.90;;;;;;4818773;29;20082;-83
2023/08/03 12:51:17;;;;;;;0.20;0.20;;;20.30;99.90;;;;;;4794070;29;20082;-82